sensor_id;sensor_type;location;lat;lon;timestamp;pressure;altitude;pressure_sealevel;temperature;humidity
66396;BME280;53207;51.378;-1.342;2023-02-26T00:00:11;100881.23;;;16.73;34.54
66396;BME280;53207;51.378;-1.342;2023-02-26T00:02:39;100880.49;;;16.81;34.44
66396;BME280;53207;51.378;-1.342;2023-02-26T00:05:07;100887.99;;;16.79;34.44
66396;BME280;53207;51.378;-1.342;2023-02-26T00:07:35;100895.18;;;16.73;34.47
66396;BME280;53207;51.378;-1.342;2023-02-26T00:10:03;100891.48;;;16.74;34.47
66396;BME280;53207;51.378;-1.342;2023-02-26T00:12:31;100894.71;;;16.36;34.63
66396;BME280;53207;51.378;-1.342;2023-02-26T00:14:59;100898.51;;;16.61;34.60
66396;BME280;53207;51.378;-1.342;2023-02-26T00:17:39;100901.16;;;16.53;34.68
66396;BME280;53207;51.378;-1.342;2023-02-26T00:20:10;100901.77;;;16.46;34.73
66396;BME280;53207;51.378;-1.342;2023-02-26T00:22:38;100903.70;;;16.78;34.60
66396;BME280;53207;51.378;-1.342;2023-02-26T00:25:06;100900.04;;;16.46;34.68
66396;BME280;53207;51.378;-1.342;2023-02-26T00:27:34;100903.29;;;16.63;34.45
66396;BME280;53207;51.378;-1.342;2023-02-26T00:30:02;100902.56;;;16.48;34.62
66396;BME280;53207;51.378;-1.342;2023-02-26T00:32:29;100901.06;;;16.45;34.61
66396;BME280;53207;51.378;-1.342;2023-02-26T00:34:58;100901.06;;;16.55;34.74
66396;BME280;53207;51.378;-1.342;2023-02-26T00:37:35;100901.94;;;16.33;34.71
66396;BME280;53207;51.378;-1.342;2023-02-26T00:40:15;100899.73;;;16.39;34.65
66396;BME280;53207;51.378;-1.342;2023-02-26T00:42:47;100891.97;;;16.26;34.78
66396;BME280;53207;51.378;-1.342;2023-02-26T00:45:15;100893.72;;;16.45;34.79
66396;BME280;53207;51.378;-1.342;2023-02-26T00:47:48;100898.16;;;16.41;34.82
66396;BME280;53207;51.378;-1.342;2023-02-26T00:50:18;100901.34;;;16.21;34.77
66396;BME280;53207;51.378;-1.342;2023-02-26T00:52:56;100905.71;;;16.31;34.93
66396;BME280;53207;51.378;-1.342;2023-02-26T00:55:27;100909.78;;;15.96;35.05
66396;BME280;53207;51.378;-1.342;2023-02-26T00:57:54;100908.79;;;16.32;34.86
66396;BME280;53207;51.378;-1.342;2023-02-26T01:00:21;100915.12;;;16.18;35.02
66396;BME280;53207;51.378;-1.342;2023-02-26T01:02:49;100913.82;;;16.17;35.02
66396;BME280;53207;51.378;-1.342;2023-02-26T01:05:18;100906.98;;;16.21;34.94
66396;BME280;53207;51.378;-1.342;2023-02-26T01:07:49;100907.67;;;16.01;34.88
66396;BME280;53207;51.378;-1.342;2023-02-26T01:10:18;100910.53;;;16.11;35.01
66396;BME280;53207;51.378;-1.342;2023-02-26T01:12:46;100907.17;;;16.06;35.05
66396;BME280;53207;51.378;-1.342;2023-02-26T01:15:14;100899.49;;;16.22;34.82
66396;BME280;53207;51.378;-1.342;2023-02-26T01:17:46;100904.42;;;15.99;35.10
66396;BME280;53207;51.378;-1.342;2023-02-26T01:20:17;100906.57;;;16.34;34.97
66396;BME280;53207;51.378;-1.342;2023-02-26T01:22:50;100906.29;;;16.21;35.13
66396;BME280;53207;51.378;-1.342;2023-02-26T01:25:23;100904.58;;;16.16;34.82
66396;BME280;53207;51.378;-1.342;2023-02-26T01:27:51;100901.03;;;16.27;34.98
66396;BME280;53207;51.378;-1.342;2023-02-26T01:30:20;100901.38;;;16.15;34.76
66396;BME280;53207;51.378;-1.342;2023-02-26T01:32:52;100906.24;;;15.58;35.20
66396;BME280;53207;51.378;-1.342;2023-02-26T01:35:31;100906.21;;;15.64;35.08
66396;BME280;53207;51.378;-1.342;2023-02-26T01:38:09;100907.62;;;15.95;34.94
66396;BME280;53207;51.378;-1.342;2023-02-26T01:41:04;100907.41;;;15.84;35.07
66396;BME280;53207;51.378;-1.342;2023-02-26T01:43:41;100911.48;;;15.94;34.91
66396;BME280;53207;51.378;-1.342;2023-02-26T01:46:16;100911.00;;;15.64;34.98
66396;BME280;53207;51.378;-1.342;2023-02-26T01:48:49;100911.09;;;15.72;35.15
66396;BME280;53207;51.378;-1.342;2023-02-26T01:51:17;100917.80;;;15.69;35.14
66396;BME280;53207;51.378;-1.342;2023-02-26T01:53:45;100919.20;;;15.93;35.16
66396;BME280;53207;51.378;-1.342;2023-02-26T01:56:15;100918.72;;;16.04;34.97
66396;BME280;53207;51.378;-1.342;2023-02-26T01:58:46;100918.82;;;15.55;35.24
66396;BME280;53207;51.378;-1.342;2023-02-26T02:01:15;100919.87;;;15.60;35.18
66396;BME280;53207;51.378;-1.342;2023-02-26T02:03:42;100917.80;;;15.80;35.22
66396;BME280;53207;51.378;-1.342;2023-02-26T02:06:15;100919.80;;;15.95;35.01
66396;BME280;53207;51.378;-1.342;2023-02-26T02:08:43;100925.48;;;16.06;34.84
66396;BME280;53207;51.378;-1.342;2023-02-26T02:11:12;100930.45;;;15.77;35.20
66396;BME280;53207;51.378;-1.342;2023-02-26T02:13:51;100934.97;;;15.94;34.95
66396;BME280;53207;51.378;-1.342;2023-02-26T02:16:29;100935.01;;;15.72;35.24
66396;BME280;53207;51.378;-1.342;2023-02-26T02:19:06;100935.79;;;15.70;35.22
66396;BME280;53207;51.378;-1.342;2023-02-26T02:21:47;100943.88;;;15.63;35.28
66396;BME280;53207;51.378;-1.342;2023-02-26T02:24:27;100946.87;;;15.70;35.18
66396;BME280;53207;51.378;-1.342;2023-02-26T02:27:01;100941.73;;;15.81;35.00
66396;BME280;53207;51.378;-1.342;2023-02-26T02:29:59;100941.13;;;15.29;35.28
66396;BME280;53207;51.378;-1.342;2023-02-26T02:32:33;100935.71;;;15.71;35.09
66396;BME280;53207;51.378;-1.342;2023-02-26T02:35:08;100937.30;;;15.70;35.04
66396;BME280;53207;51.378;-1.342;2023-02-26T02:37:41;100935.33;;;15.76;34.97
66396;BME280;53207;51.378;-1.342;2023-02-26T02:40:14;100934.63;;;15.61;35.10
66396;BME280;53207;51.378;-1.342;2023-02-26T02:42:45;100941.93;;;15.20;35.29
66396;BME280;53207;51.378;-1.342;2023-02-26T02:45:19;100939.82;;;15.54;35.15
66396;BME280;53207;51.378;-1.342;2023-02-26T02:47:54;100940.00;;;15.59;35.07
66396;BME280;53207;51.378;-1.342;2023-02-26T02:50:28;100940.81;;;15.55;35.10
66396;BME280;53207;51.378;-1.342;2023-02-26T02:53:01;100936.47;;;15.66;34.95
66396;BME280;53207;51.378;-1.342;2023-02-26T02:55:34;100938.98;;;15.44;35.19
66396;BME280;53207;51.378;-1.342;2023-02-26T02:58:07;100947.78;;;15.50;35.10
66396;BME280;53207;51.378;-1.342;2023-02-26T03:00:41;100951.31;;;15.38;35.23
66396;BME280;53207;51.378;-1.342;2023-02-26T03:03:15;100952.20;;;15.67;35.09
66396;BME280;53207;51.378;-1.342;2023-02-26T03:05:44;100947.60;;;15.44;35.08
66396;BME280;53207;51.378;-1.342;2023-02-26T03:08:15;100948.54;;;15.48;35.00
66396;BME280;53207;51.378;-1.342;2023-02-26T03:10:43;100951.05;;;15.48;34.97
66396;BME280;53207;51.378;-1.342;2023-02-26T03:13:15;100954.83;;;15.34;35.11
66396;BME280;53207;51.378;-1.342;2023-02-26T03:15:49;100961.34;;;15.36;35.10
66396;BME280;53207;51.378;-1.342;2023-02-26T03:18:25;100955.81;;;15.34;35.10
66396;BME280;53207;51.378;-1.342;2023-02-26T03:21:03;100951.03;;;15.25;35.17
66396;BME280;53207;51.378;-1.342;2023-02-26T03:23:35;100950.43;;;15.19;35.25
66396;BME280;53207;51.378;-1.342;2023-02-26T03:26:11;100957.86;;;15.58;35.02
66396;BME280;53207;51.378;-1.342;2023-02-26T03:28:43;100961.31;;;15.24;35.15
66396;BME280;53207;51.378;-1.342;2023-02-26T03:31:19;100960.38;;;15.21;35.14
66396;BME280;53207;51.378;-1.342;2023-02-26T03:33:53;100958.80;;;15.38;35.19
66396;BME280;53207;51.378;-1.342;2023-02-26T03:36:26;100960.94;;;15.10;35.24
66396;BME280;53207;51.378;-1.342;2023-02-26T03:38:59;100964.30;;;15.60;35.20
66396;BME280;53207;51.378;-1.342;2023-02-26T03:41:31;100961.33;;;15.61;35.15
66396;BME280;53207;51.378;-1.342;2023-02-26T03:44:04;100966.51;;;15.21;35.03
66396;BME280;53207;51.378;-1.342;2023-02-26T03:46:35;100975.31;;;15.55;35.17
66396;BME280;53207;51.378;-1.342;2023-02-26T03:49:06;100976.02;;;15.46;34.95
66396;BME280;53207;51.378;-1.342;2023-02-26T03:51:36;100979.45;;;15.28;35.14
66396;BME280;53207;51.378;-1.342;2023-02-26T03:54:09;100979.49;;;14.91;35.31
66396;BME280;53207;51.378;-1.342;2023-02-26T03:56:41;100979.75;;;14.78;35.12
66396;BME280;53207;51.378;-1.342;2023-02-26T03:59:10;100981.86;;;15.05;35.07
66396;BME280;53207;51.378;-1.342;2023-02-26T04:01:42;100982.43;;;15.43;35.21
66396;BME280;53207;51.378;-1.342;2023-02-26T04:04:14;100987.13;;;15.10;35.28
66396;BME280;53207;51.378;-1.342;2023-02-26T04:06:42;100986.56;;;15.05;35.32
66396;BME280;53207;51.378;-1.342;2023-02-26T04:09:11;100990.19;;;15.28;35.02
66396;BME280;53207;51.378;-1.342;2023-02-26T04:11:38;100992.79;;;14.84;35.29
66396;BME280;53207;51.378;-1.342;2023-02-26T04:14:06;100997.36;;;15.18;35.10
66396;BME280;53207;51.378;-1.342;2023-02-26T04:16:33;100997.38;;;15.43;35.13
66396;BME280;53207;51.378;-1.342;2023-02-26T04:19:01;101000.30;;;14.89;35.17
66396;BME280;53207;51.378;-1.342;2023-02-26T04:21:28;100999.48;;;14.75;35.33
66396;BME280;53207;51.378;-1.342;2023-02-26T04:23:55;100998.65;;;14.79;35.27
66396;BME280;53207;51.378;-1.342;2023-02-26T04:26:23;100999.27;;;15.24;35.33
66396;BME280;53207;51.378;-1.342;2023-02-26T04:28:50;101003.38;;;14.79;35.26
66396;BME280;53207;51.378;-1.342;2023-02-26T04:31:17;101001.55;;;15.43;35.04
66396;BME280;53207;51.378;-1.342;2023-02-26T04:33:45;101000.41;;;15.27;35.20
66396;BME280;53207;51.378;-1.342;2023-02-26T04:36:12;101001.13;;;14.98;35.23
66396;BME280;53207;51.378;-1.342;2023-02-26T04:38:39;101002.40;;;15.02;35.19
66396;BME280;53207;51.378;-1.342;2023-02-26T04:41:07;101005.90;;;14.93;35.26
66396;BME280;53207;51.378;-1.342;2023-02-26T04:43:34;101007.60;;;15.22;35.23
66396;BME280;53207;51.378;-1.342;2023-02-26T04:46:02;101012.76;;;15.31;35.08
66396;BME280;53207;51.378;-1.342;2023-02-26T04:48:29;101015.18;;;15.12;35.32
66396;BME280;53207;51.378;-1.342;2023-02-26T04:50:56;101013.15;;;15.07;35.34
66396;BME280;53207;51.378;-1.342;2023-02-26T04:53:24;101019.28;;;14.84;35.31
66396;BME280;53207;51.378;-1.342;2023-02-26T04:55:51;101020.13;;;14.86;35.27
66396;BME280;53207;51.378;-1.342;2023-02-26T04:58:19;101023.47;;;14.58;35.34
66396;BME280;53207;51.378;-1.342;2023-02-26T05:00:48;101021.78;;;15.06;35.31
66396;BME280;53207;51.378;-1.342;2023-02-26T05:03:16;101026.65;;;14.82;35.60
66396;BME280;53207;51.378;-1.342;2023-02-26T05:05:43;101028.29;;;15.04;35.31
66396;BME280;53207;51.378;-1.342;2023-02-26T05:08:12;101029.00;;;14.68;35.42
66396;BME280;53207;51.378;-1.342;2023-02-26T05:10:39;101029.61;;;14.65;35.46
66396;BME280;53207;51.378;-1.342;2023-02-26T05:13:06;101029.64;;;14.77;35.25
66396;BME280;53207;51.378;-1.342;2023-02-26T05:15:34;101034.69;;;14.82;35.54
66396;BME280;53207;51.378;-1.342;2023-02-26T05:18:01;101035.15;;;14.99;35.29
66396;BME280;53207;51.378;-1.342;2023-02-26T05:20:29;101033.54;;;14.98;35.31
66396;BME280;53207;51.378;-1.342;2023-02-26T05:22:56;101036.44;;;14.53;35.54
66396;BME280;53207;51.378;-1.342;2023-02-26T05:25:23;101042.16;;;14.90;35.38
66396;BME280;53207;51.378;-1.342;2023-02-26T05:27:51;101046.09;;;14.76;35.57
66396;BME280;53207;51.378;-1.342;2023-02-26T05:30:18;101047.11;;;14.91;35.33
66396;BME280;53207;51.378;-1.342;2023-02-26T05:32:45;101047.90;;;14.90;35.33
66396;BME280;53207;51.378;-1.342;2023-02-26T05:35:13;101049.40;;;14.99;35.21
66396;BME280;53207;51.378;-1.342;2023-02-26T05:37:40;101050.80;;;14.86;35.35
66396;BME280;53207;51.378;-1.342;2023-02-26T05:40:09;101056.58;;;14.78;35.48
66396;BME280;53207;51.378;-1.342;2023-02-26T05:42:36;101058.39;;;14.93;35.25
66396;BME280;53207;51.378;-1.342;2023-02-26T05:45:04;101060.13;;;15.03;35.09
66396;BME280;53207;51.378;-1.342;2023-02-26T05:47:33;101063.56;;;14.83;35.36
66396;BME280;53207;51.378;-1.342;2023-02-26T05:50:01;101065.57;;;14.68;35.21
66396;BME280;53207;51.378;-1.342;2023-02-26T05:52:29;101063.64;;;14.99;35.13
66396;BME280;53207;51.378;-1.342;2023-02-26T05:54:56;101067.72;;;15.06;35.30
66396;BME280;53207;51.378;-1.342;2023-02-26T05:57:24;101069.45;;;15.12;35.23
66396;BME280;53207;51.378;-1.342;2023-02-26T05:59:51;101072.02;;;14.98;35.40
66396;BME280;53207;51.378;-1.342;2023-02-26T06:02:18;101068.44;;;14.77;35.37
66396;BME280;53207;51.378;-1.342;2023-02-26T06:04:46;101069.12;;;14.69;35.46
66396;BME280;53207;51.378;-1.342;2023-02-26T06:07:13;101068.08;;;14.59;35.56
66396;BME280;53207;51.378;-1.342;2023-02-26T06:09:40;101069.45;;;14.45;35.41
66396;BME280;53207;51.378;-1.342;2023-02-26T06:12:08;101071.71;;;14.60;35.52
66396;BME280;53207;51.378;-1.342;2023-02-26T06:14:35;101074.52;;;14.70;35.42
66396;BME280;53207;51.378;-1.342;2023-02-26T06:17:03;101072.85;;;14.59;35.57
66396;BME280;53207;51.378;-1.342;2023-02-26T06:19:30;101074.55;;;14.56;35.59
66396;BME280;53207;51.378;-1.342;2023-02-26T06:21:57;101084.22;;;14.59;35.52
66396;BME280;53207;51.378;-1.342;2023-02-26T06:24:25;101083.26;;;14.65;35.43
66396;BME280;53207;51.378;-1.342;2023-02-26T06:26:52;101091.85;;;14.66;35.46
66396;BME280;53207;51.378;-1.342;2023-02-26T06:29:19;101095.22;;;14.52;35.56
66396;BME280;53207;51.378;-1.342;2023-02-26T06:31:47;101096.27;;;14.51;35.59
66396;BME280;53207;51.378;-1.342;2023-02-26T06:34:14;101104.24;;;14.58;35.50
66396;BME280;53207;51.378;-1.342;2023-02-26T06:36:42;101100.72;;;14.56;35.52
66396;BME280;53207;51.378;-1.342;2023-02-26T06:39:09;101102.40;;;14.50;35.56
66396;BME280;53207;51.378;-1.342;2023-02-26T06:41:36;101105.67;;;14.55;35.51
66396;BME280;53207;51.378;-1.342;2023-02-26T06:44:04;101104.76;;;14.57;35.50
66396;BME280;53207;51.378;-1.342;2023-02-26T06:46:31;101111.40;;;14.37;35.71
66396;BME280;53207;51.378;-1.342;2023-02-26T06:48:58;101119.35;;;14.66;35.34
66396;BME280;53207;51.378;-1.342;2023-02-26T06:51:26;101122.75;;;14.18;35.57
66396;BME280;53207;51.378;-1.342;2023-02-26T06:53:53;101126.40;;;14.34;35.74
66396;BME280;53207;51.378;-1.342;2023-02-26T06:56:21;101127.36;;;14.78;35.42
66396;BME280;53207;51.378;-1.342;2023-02-26T06:58:48;101129.57;;;14.62;35.65
66396;BME280;53207;51.378;-1.342;2023-02-26T07:01:15;101132.97;;;14.44;35.56
66396;BME280;53207;51.378;-1.342;2023-02-26T07:03:43;101137.59;;;14.29;35.75
66396;BME280;53207;51.378;-1.342;2023-02-26T07:06:11;101140.22;;;14.20;35.92
66396;BME280;53207;51.378;-1.342;2023-02-26T07:08:38;101146.78;;;14.52;35.92
66396;BME280;53207;51.378;-1.342;2023-02-26T07:11:06;101149.09;;;14.66;35.50
66396;BME280;53207;51.378;-1.342;2023-02-26T07:13:33;101154.24;;;14.83;35.40
66396;BME280;53207;51.378;-1.342;2023-02-26T07:16:01;101153.47;;;14.90;35.44
66396;BME280;53207;51.378;-1.342;2023-02-26T07:18:28;101153.88;;;15.06;35.41
66396;BME280;53207;51.378;-1.342;2023-02-26T07:20:55;101154.91;;;15.21;35.39
66396;BME280;53207;51.378;-1.342;2023-02-26T07:23:22;101157.75;;;15.15;35.32
66396;BME280;53207;51.378;-1.342;2023-02-26T07:25:50;101162.56;;;15.60;35.35
66396;BME280;53207;51.378;-1.342;2023-02-26T07:28:17;101165.25;;;15.52;35.20
66396;BME280;53207;51.378;-1.342;2023-02-26T07:30:44;101169.06;;;15.47;35.03
66396;BME280;53207;51.378;-1.342;2023-02-26T07:33:12;101172.41;;;15.64;34.98
66396;BME280;53207;51.378;-1.342;2023-02-26T07:35:39;101185.68;;;15.78;34.91
66396;BME280;53207;51.378;-1.342;2023-02-26T07:38:07;101187.44;;;15.93;34.87
66396;BME280;53207;51.378;-1.342;2023-02-26T07:40:34;101195.98;;;16.12;34.72
66396;BME280;53207;51.378;-1.342;2023-02-26T07:43:01;101192.74;;;16.24;34.67
66396;BME280;53207;51.378;-1.342;2023-02-26T07:45:29;101191.15;;;16.34;34.63
66396;BME280;53207;51.378;-1.342;2023-02-26T07:47:56;101189.62;;;16.48;34.52
66396;BME280;53207;51.378;-1.342;2023-02-26T07:50:24;101192.97;;;16.56;34.51
66396;BME280;53207;51.378;-1.342;2023-02-26T07:52:51;101195.41;;;16.32;34.55
66396;BME280;53207;51.378;-1.342;2023-02-26T07:55:18;101197.47;;;16.47;34.44
66396;BME280;53207;51.378;-1.342;2023-02-26T07:57:46;101202.64;;;16.79;34.42
66396;BME280;53207;51.378;-1.342;2023-02-26T08:00:17;101203.22;;;16.65;34.30
66396;BME280;53207;51.378;-1.342;2023-02-26T08:02:44;101210.60;;;16.78;34.19
66396;BME280;53207;51.378;-1.342;2023-02-26T08:05:11;101215.13;;;16.75;34.22
66396;BME280;53207;51.378;-1.342;2023-02-26T08:07:38;101213.87;;;16.77;34.25
66396;BME280;53207;51.378;-1.342;2023-02-26T08:10:07;101216.61;;;16.77;34.22
66396;BME280;53207;51.378;-1.342;2023-02-26T08:12:35;101219.94;;;16.62;34.07
66396;BME280;53207;51.378;-1.342;2023-02-26T08:15:03;101222.68;;;16.66;33.92
66396;BME280;53207;51.378;-1.342;2023-02-26T08:17:30;101227.31;;;16.62;33.92
66396;BME280;53207;51.378;-1.342;2023-02-26T08:19:57;101226.85;;;16.88;33.82
66396;BME280;53207;51.378;-1.342;2023-02-26T08:22:25;101231.27;;;17.09;33.82
66396;BME280;53207;51.378;-1.342;2023-02-26T08:24:52;101231.09;;;16.77;33.90
66396;BME280;53207;51.378;-1.342;2023-02-26T08:27:20;101238.45;;;16.76;33.85
66396;BME280;53207;51.378;-1.342;2023-02-26T08:29:47;101234.51;;;16.46;33.84
66396;BME280;53207;51.378;-1.342;2023-02-26T08:32:15;101239.04;;;16.63;33.92
66396;BME280;53207;51.378;-1.342;2023-02-26T08:34:42;101237.58;;;16.37;33.95
66396;BME280;53207;51.378;-1.342;2023-02-26T08:37:10;101237.40;;;16.50;34.05
66396;BME280;53207;51.378;-1.342;2023-02-26T08:39:37;101241.00;;;16.52;34.08
66396;BME280;53207;51.378;-1.342;2023-02-26T08:42:06;101240.98;;;16.71;34.14
66396;BME280;53207;51.378;-1.342;2023-02-26T08:44:34;101242.15;;;16.42;34.15
66396;BME280;53207;51.378;-1.342;2023-02-26T08:47:02;101239.07;;;16.42;34.12
66396;BME280;53207;51.378;-1.342;2023-02-26T08:49:29;101242.67;;;16.39;34.17
66396;BME280;53207;51.378;-1.342;2023-02-26T08:51:56;101243.23;;;16.29;34.26
66396;BME280;53207;51.378;-1.342;2023-02-26T08:54:24;101246.34;;;16.30;34.23
66396;BME280;53207;51.378;-1.342;2023-02-26T08:56:51;101248.23;;;16.40;34.43
66396;BME280;53207;51.378;-1.342;2023-02-26T08:59:18;101250.78;;;16.01;34.56
66396;BME280;53207;51.378;-1.342;2023-02-26T09:01:46;101253.37;;;16.14;34.42
66396;BME280;53207;51.378;-1.342;2023-02-26T09:04:13;101261.61;;;15.93;34.42
66396;BME280;53207;51.378;-1.342;2023-02-26T09:06:40;101263.06;;;16.08;34.52
66396;BME280;53207;51.378;-1.342;2023-02-26T09:09:08;101268.69;;;16.29;34.62
66396;BME280;53207;51.378;-1.342;2023-02-26T09:11:35;101277.71;;;16.41;34.48
66396;BME280;53207;51.378;-1.342;2023-02-26T09:14:03;101278.67;;;16.16;34.46
66396;BME280;53207;51.378;-1.342;2023-02-26T09:16:31;101281.77;;;15.93;34.73
66396;BME280;53207;51.378;-1.342;2023-02-26T09:18:58;101283.78;;;16.10;34.52
66396;BME280;53207;51.378;-1.342;2023-02-26T09:21:25;101286.00;;;16.21;34.73
66396;BME280;53207;51.378;-1.342;2023-02-26T09:23:53;101290.81;;;15.77;34.65
66396;BME280;53207;51.378;-1.342;2023-02-26T09:26:20;101292.18;;;16.24;34.69
66396;BME280;53207;51.378;-1.342;2023-02-26T09:28:47;101288.24;;;15.75;34.89
66396;BME280;53207;51.378;-1.342;2023-02-26T09:31:15;101289.40;;;16.01;34.92
66396;BME280;53207;51.378;-1.342;2023-02-26T09:33:42;101287.01;;;16.00;34.94
66396;BME280;53207;51.378;-1.342;2023-02-26T09:36:09;101294.26;;;15.53;35.17
66396;BME280;53207;51.378;-1.342;2023-02-26T09:38:37;101296.45;;;15.92;35.02
66396;BME280;53207;51.378;-1.342;2023-02-26T09:41:07;101304.59;;;15.62;35.05
66396;BME280;53207;51.378;-1.342;2023-02-26T09:43:55;101307.83;;;15.66;34.99
66396;BME280;53207;51.378;-1.342;2023-02-26T09:46:34;101305.80;;;15.73;34.91
66396;BME280;53207;51.378;-1.342;2023-02-26T09:49:14;101307.52;;;15.88;34.77
66396;BME280;53207;51.378;-1.342;2023-02-26T09:51:46;101307.43;;;16.11;34.82
66396;BME280;53207;51.378;-1.342;2023-02-26T09:54:18;101309.96;;;16.19;34.76
66396;BME280;53207;51.378;-1.342;2023-02-26T09:56:47;101314.84;;;15.80;34.90
66396;BME280;53207;51.378;-1.342;2023-02-26T09:59:16;101320.63;;;15.79;34.92
66396;BME280;53207;51.378;-1.342;2023-02-26T10:01:47;101318.37;;;16.03;34.93
66396;BME280;53207;51.378;-1.342;2023-02-26T10:04:26;101322.08;;;16.05;34.92
66396;BME280;53207;51.378;-1.342;2023-02-26T10:07:05;101324.75;;;16.17;34.67
66396;BME280;53207;51.378;-1.342;2023-02-26T10:09:46;101325.50;;;16.39;35.51
66396;BME280;53207;51.378;-1.342;2023-02-26T10:12:18;101330.14;;;16.90;35.29
66396;BME280;53207;51.378;-1.342;2023-02-26T10:14:51;101334.56;;;16.73;35.13
66396;BME280;53207;51.378;-1.342;2023-02-26T10:17:29;101340.54;;;16.89;34.96
66396;BME280;53207;51.378;-1.342;2023-02-26T10:20:02;101340.22;;;16.73;34.76
66396;BME280;53207;51.378;-1.342;2023-02-26T10:22:35;101341.58;;;16.80;34.45
66396;BME280;53207;51.378;-1.342;2023-02-26T10:25:08;101344.50;;;16.90;34.18
66396;BME280;53207;51.378;-1.342;2023-02-26T10:27:45;101347.71;;;17.30;33.78
66396;BME280;53207;51.378;-1.342;2023-02-26T10:30:22;101352.49;;;17.11;33.62
66396;BME280;53207;51.378;-1.342;2023-02-26T10:32:57;101359.97;;;17.17;33.13
66396;BME280;53207;51.378;-1.342;2023-02-26T10:35:28;101363.04;;;17.30;33.03
66396;BME280;53207;51.378;-1.342;2023-02-26T10:38:00;101362.13;;;17.10;32.73
66396;BME280;53207;51.378;-1.342;2023-02-26T10:40:32;101357.24;;;17.30;32.53
66396;BME280;53207;51.378;-1.342;2023-02-26T10:43:07;101364.36;;;17.14;32.24
66396;BME280;53207;51.378;-1.342;2023-02-26T10:45:45;101374.34;;;17.31;32.17
66396;BME280;53207;51.378;-1.342;2023-02-26T10:48:26;101371.68;;;17.39;32.04
66396;BME280;53207;51.378;-1.342;2023-02-26T10:50:58;101370.86;;;17.36;31.95
66396;BME280;53207;51.378;-1.342;2023-02-26T10:53:30;101367.11;;;17.03;31.80
66396;BME280;53207;51.378;-1.342;2023-02-26T10:56:04;101369.05;;;16.94;31.76
66396;BME280;53207;51.378;-1.342;2023-02-26T10:58:34;101374.93;;;17.10;31.72
66396;BME280;53207;51.378;-1.342;2023-02-26T11:01:03;101376.87;;;17.15;31.55
66396;BME280;53207;51.378;-1.342;2023-02-26T11:03:35;101376.58;;;17.04;31.42
66396;BME280;53207;51.378;-1.342;2023-02-26T11:06:05;101382.23;;;17.13;31.16
66396;BME280;53207;51.378;-1.342;2023-02-26T11:08:35;101380.38;;;17.07;31.04
66396;BME280;53207;51.378;-1.342;2023-02-26T11:11:04;101387.12;;;17.11;30.85
66396;BME280;53207;51.378;-1.342;2023-02-26T11:13:33;101390.75;;;17.07;31.00
66396;BME280;53207;51.378;-1.342;2023-02-26T11:16:04;101395.59;;;17.12;31.09
66396;BME280;53207;51.378;-1.342;2023-02-26T11:18:37;101399.26;;;17.03;30.99
66396;BME280;53207;51.378;-1.342;2023-02-26T11:21:06;101405.27;;;17.10;30.99
66396;BME280;53207;51.378;-1.342;2023-02-26T11:23:34;101406.78;;;17.07;31.03
66396;BME280;53207;51.378;-1.342;2023-02-26T11:26:05;101406.72;;;17.22;30.99
66396;BME280;53207;51.378;-1.342;2023-02-26T11:28:36;101407.82;;;17.12;30.62
66396;BME280;53207;51.378;-1.342;2023-02-26T11:31:10;101409.75;;;17.08;30.82
66396;BME280;53207;51.378;-1.342;2023-02-26T11:33:43;101416.20;;;16.96;30.80
66396;BME280;53207;51.378;-1.342;2023-02-26T11:36:13;101412.39;;;16.74;30.82
66396;BME280;53207;51.378;-1.342;2023-02-26T11:38:43;101420.22;;;17.01;30.81
66396;BME280;53207;51.378;-1.342;2023-02-26T11:41:12;101425.00;;;16.89;31.18
66396;BME280;53207;51.378;-1.342;2023-02-26T11:43:42;101417.52;;;16.94;31.32
66396;BME280;53207;51.378;-1.342;2023-02-26T11:46:10;101421.01;;;17.03;31.38
66396;BME280;53207;51.378;-1.342;2023-02-26T11:48:40;101422.23;;;16.99;31.53
66396;BME280;53207;51.378;-1.342;2023-02-26T11:51:12;101427.36;;;17.31;31.58
66396;BME280;53207;51.378;-1.342;2023-02-26T11:53:43;101435.05;;;17.02;31.77
66396;BME280;53207;51.378;-1.342;2023-02-26T11:56:25;101431.79;;;16.95;31.79
66396;BME280;53207;51.378;-1.342;2023-02-26T11:58:54;101433.45;;;16.94;31.84
66396;BME280;53207;51.378;-1.342;2023-02-26T12:01:26;101425.43;;;17.03;31.75
66396;BME280;53207;51.378;-1.342;2023-02-26T12:03:57;101428.17;;;17.01;31.77
66396;BME280;53207;51.378;-1.342;2023-02-26T12:06:25;101427.03;;;17.08;31.73
66396;BME280;53207;51.378;-1.342;2023-02-26T12:08:53;101428.32;;;17.26;31.78
66396;BME280;53207;51.378;-1.342;2023-02-26T12:11:36;101425.42;;;16.84;31.68
66396;BME280;53207;51.378;-1.342;2023-02-26T12:14:34;101426.75;;;17.20;31.61
66396;BME280;53207;51.378;-1.342;2023-02-26T12:17:14;101426.30;;;17.19;31.56
66396;BME280;53207;51.378;-1.342;2023-02-26T12:19:49;101427.74;;;17.00;31.51
66396;BME280;53207;51.378;-1.342;2023-02-26T12:22:32;101423.38;;;17.01;31.44
66396;BME280;53207;51.378;-1.342;2023-02-26T12:25:17;101430.29;;;17.07;31.36
66396;BME280;53207;51.378;-1.342;2023-02-26T12:28:05;101428.66;;;17.26;31.38
66396;BME280;53207;51.378;-1.342;2023-02-26T12:30:49;101425.97;;;17.01;31.37
66396;BME280;53207;51.378;-1.342;2023-02-26T12:33:30;101424.95;;;17.24;31.38
66396;BME280;53207;51.378;-1.342;2023-02-26T12:36:09;101429.79;;;16.96;31.42
66396;BME280;53207;51.378;-1.342;2023-02-26T12:38:46;101434.07;;;16.99;31.52
66396;BME280;53207;51.378;-1.342;2023-02-26T12:41:26;101434.67;;;17.27;31.24
66396;BME280;53207;51.378;-1.342;2023-02-26T12:43:59;101441.39;;;17.23;31.34
66396;BME280;53207;51.378;-1.342;2023-02-26T12:46:38;101430.89;;;17.21;31.17
66396;BME280;53207;51.378;-1.342;2023-02-26T12:49:58;101441.56;;;17.11;31.20
66396;BME280;53207;51.378;-1.342;2023-02-26T12:52:41;101436.96;;;17.11;30.94
66396;BME280;53207;51.378;-1.342;2023-02-26T12:55:22;101433.60;;;17.10;30.67
66396;BME280;53207;51.378;-1.342;2023-02-26T12:58:19;101432.47;;;16.73;30.59